Terminal Aerodrome Forecast
Issued by NWS Pocatello, ID

Home | Current Version | Previous Version | Text Only | Print | Product List | Glossary On
Versions: 1 2 3 4 5 6 7 8 9 10 11 12 13 14 15 16 17 18 19 20 21 22 23 24 25
788
FTUS45 KPIH 042049 AAA
TAFBYI
TAF AMD
KBYI 042049Z 0421/0518 20017G27KT P6SM -SHRASN SCT020 BKN035
      WS010/23050KT
     FM042200 24015G25KT 5SM -RASN SCT010 OVC025
     FM050100 26015G25KT 4SM -SN SCT008 OVC010
     FM050800 26018G28KT P6SM VCSH SCT020 BKN045
     FM051400 25014KT P6SM BKN060=

USA.gov is the U.S. government's official web portal to all federal, state and local government web resources and services.